Time;durP1;ratioP1;P1;durP2;ratioP2;P2;SDS_P1;SDS_P2;PMS_P1;PMS_P2;Temp;Humidity;BMP_temperature;BMP_pressure;BME280_temperature;BME280_humidity;BME280_pressure;Samples;Min_cycle;Max_cycle;Signal;HPM_P1;HPM_P2
2023/05/13 00:01:37;;;;;;;875.10;794.53;;;10.10;99.90;;;;;;6233010;23;20438;-93
2023/05/13 00:04:05;;;;;;;859.53;780.43;;;10.20;99.90;;;;;;6233366;23;20455;-93
2023/05/13 00:06:33;;;;;;;859.83;780.63;;;10.20;99.90;;;;;;6232797;23;20404;-93
2023/05/13 00:09:00;;;;;;;863.77;784.07;;;10.20;99.90;;;;;;6233252;23;20424;-93
2023/05/13 00:11:31;;;;;;;872.63;792.83;;;10.30;99.90;;;;;;6232707;23;20436;-94
2023/05/13 00:13:58;;;;;;;872.27;792.57;;;10.20;99.90;;;;;;6222983;23;20769;-94
2023/05/13 00:16:28;;;;;;;856.97;780.60;;;10.30;99.90;;;;;;6232324;23;20416;-93
2023/05/13 00:18:57;;;;;;;850.40;774.03;;;10.30;99.90;;;;;;6232852;23;20495;-93
2023/05/13 00:21:25;;;;;;;863.90;786.47;;;10.40;99.90;;;;;;6233626;23;20424;-92
2023/05/13 00:23:58;;;;;;;865.80;788.73;;;10.30;99.90;;;;;;6233026;23;20416;-94
2023/05/13 00:26:26;;;;;;;857.17;780.53;;;10.40;99.90;;;;;;6233040;23;20408;-94
2023/05/13 00:28:53;;;;;;;866.87;791.10;;;10.40;99.90;;;;;;6232914;23;20443;-93
2023/05/13 00:31:21;;;;;;;870.60;795.10;;;10.30;99.90;;;;;;6232427;23;20822;-93
2023/05/13 00:33:50;;;;;;;857.50;784.50;;;10.30;99.90;;;;;;6233040;23;20481;-93
2023/05/13 00:36:17;;;;;;;876.03;805.30;;;10.20;99.90;;;;;;6232464;23;20486;-94
2023/05/13 00:38:45;;;;;;;878.20;806.53;;;10.00;99.90;;;;;;6232280;23;20410;-93
2023/05/13 00:41:13;;;;;;;870.77;799.10;;;9.90;99.90;;;;;;6232215;23;20412;-94
2023/05/13 00:43:40;;;;;;;861.20;788.20;;;10.00;99.90;;;;;;6222470;23;20416;-93
2023/05/13 00:46:09;;;;;;;855.33;784.30;;;10.10;99.90;;;;;;6232383;23;20411;-92
2023/05/13 00:48:36;;;;;;;882.60;807.93;;;10.10;99.90;;;;;;6231485;23;20916;-93
2023/05/13 00:51:05;;;;;;;874.33;798.23;;;10.10;99.90;;;;;;6232015;23;20478;-93
2023/05/13 00:53:33;;;;;;;874.70;797.60;;;10.20;99.90;;;;;;6232637;23;20434;-94
2023/05/13 00:56:00;;;;;;;873.07;796.37;;;10.20;99.90;;;;;;6223188;23;20427;-93
2023/05/13 00:58:27;;;;;;;868.40;788.33;;;10.20;99.90;;;;;;6232649;23;20466;-93
2023/05/13 01:01:03;;;;;;;860.80;780.63;;;10.10;99.90;;;;;;6233202;23;20966;-93
2023/05/13 01:03:40;;;;;;;864.07;785.30;;;10.20;99.90;;;;;;6233014;23;20699;-93
2023/05/13 01:06:13;;;;;;;872.83;793.40;;;10.10;99.90;;;;;;6232574;23;20423;-93
2023/05/13 01:08:47;;;;;;;885.77;805.90;;;10.20;99.90;;;;;;6223131;23;20423;-94
2023/05/13 01:11:20;;;;;;;876.80;796.80;;;10.10;99.90;;;;;;6232138;23;20411;-93
2023/05/13 01:13:50;;;;;;;867.77;787.27;;;10.20;99.90;;;;;;6232646;23;20400;-93
2023/05/13 01:16:22;;;;;;;866.40;787.03;;;10.20;99.90;;;;;;6232640;23;20736;-93
2023/05/13 01:18:56;;;;;;;878.07;798.17;;;10.10;99.90;;;;;;6232396;23;20472;-92
2023/05/13 01:21:26;;;;;;;865.77;787.00;;;10.00;99.90;;;;;;6222011;23;20427;-93
2023/05/13 01:23:54;;;;;;;866.40;788.20;;;9.90;99.90;;;;;;6222630;23;20760;-93
2023/05/13 01:26:23;;;;;;;873.83;793.63;;;9.90;99.90;;;;;;6222421;23;20495;-93
2023/05/13 01:28:50;;;;;;;888.80;807.03;;;10.00;99.90;;;;;;6232440;23;20479;-93
2023/05/13 01:31:19;;;;;;;876.00;793.73;;;10.00;99.90;;;;;;6222441;23;20419;-93
2023/05/13 01:33:47;;;;;;;871.73;789.83;;;9.90;99.90;;;;;;6232403;23;20434;-94
2023/05/13 01:36:14;;;;;;;870.60;788.90;;;9.90;99.90;;;;;;6232371;23;20412;-92
2023/05/13 01:38:43;;;;;;;873.97;791.80;;;10.00;99.90;;;;;;6232259;23;20416;-93
2023/05/13 01:41:10;;;;;;;880.53;798.93;;;9.90;99.90;;;;;;6232887;23;20412;-94
2023/05/13 01:43:37;;;;;;;877.23;796.93;;;9.80;99.90;;;;;;6232616;23;20412;-94
2023/05/13 01:46:11;;;;;;;883.37;800.90;;;9.80;99.90;;;;;;6222728;23;20436;-93
2023/05/13 01:48:38;;;;;;;886.20;801.83;;;9.80;99.90;;;;;;6232429;23;20503;-93
2023/05/13 01:51:06;;;;;;;883.70;799.30;;;9.80;99.90;;;;;;6232579;23;20483;-93
2023/05/13 01:53:33;;;;;;;877.33;793.37;;;9.80;99.90;;;;;;6232291;23;20486;-93
2023/05/13 01:56:02;;;;;;;879.13;795.23;;;9.80;99.90;;;;;;6222176;23;20416;-93
2023/05/13 01:58:29;;;;;;;877.07;792.40;;;9.80;99.90;;;;;;6232189;23;20419;-93
2023/05/13 02:00:56;;;;;;;871.87;788.73;;;9.80;99.90;;;;;;6231774;23;20404;-93
2023/05/13 02:03:23;;;;;;;869.87;785.70;;;9.80;99.90;;;;;;6231628;23;20516;-94
2023/05/13 02:05:50;;;;;;;860.97;777.37;;;9.80;99.90;;;;;;6231838;23;20412;-93
2023/05/13 02:08:18;;;;;;;858.03;773.17;;;9.80;99.90;;;;;;6232771;23;20423;-94
2023/05/13 02:10:45;;;;;;;865.57;780.70;;;9.80;99.90;;;;;;6233320;23;20475;-93
2023/05/13 02:13:14;;;;;;;876.73;792.63;;;9.80;99.90;;;;;;6233559;23;20452;-93
2023/05/13 02:15:41;;;;;;;881.03;796.97;;;9.90;99.90;;;;;;6233876;23;20483;-93
2023/05/13 02:18:08;;;;;;;878.90;795.90;;;9.80;99.90;;;;;;6233043;23;20444;-93
2023/05/13 02:20:35;;;;;;;874.10;790.90;;;9.80;99.90;;;;;;6232124;23;20416;-93
2023/05/13 02:23:03;;;;;;;882.47;797.20;;;9.80;99.90;;;;;;6231600;23;20418;-93
2023/05/13 02:25:30;;;;;;;867.77;783.47;;;9.80;99.90;;;;;;6231954;23;20410;-93
2023/05/13 02:27:58;;;;;;;861.40;776.90;;;9.80;99.90;;;;;;6231984;23;20423;-93
2023/05/13 02:30:27;;;;;;;866.63;782.93;;;9.90;99.90;;;;;;6232071;23;20523;-93
2023/05/13 02:32:55;;;;;;;860.93;777.37;;;9.80;99.90;;;;;;6232084;23;20436;-93
2023/05/13 02:35:24;;;;;;;865.77;783.47;;;9.90;99.90;;;;;;6222198;23;20447;-93
2023/05/13 02:37:52;;;;;;;874.93;791.80;;;9.80;99.90;;;;;;6233650;23;20415;-93
2023/05/13 02:40:19;;;;;;;873.73;788.83;;;9.80;99.90;;;;;;6234022;23;20917;-93
2023/05/13 02:42:46;;;;;;;872.57;787.00;;;9.80;99.90;;;;;;6233572;23;20412;-93
2023/05/13 02:45:13;;;;;;;855.63;770.73;;;9.90;99.90;;;;;;6223886;23;20416;-93
2023/05/13 02:47:42;;;;;;;852.37;767.60;;;10.00;99.90;;;;;;6233934;23;20415;-94
2023/05/13 02:50:11;;;;;;;852.27;766.90;;;10.00;99.90;;;;;;6233753;23;20794;-94
2023/05/13 02:52:39;;;;;;;853.00;768.10;;;10.00;99.90;;;;;;6223976;23;20436;-93
2023/05/13 02:55:08;;;;;;;842.20;758.90;;;10.10;99.90;;;;;;6233047;23;20416;-93
2023/05/13 02:57:36;;;;;;;851.23;768.33;;;10.10;99.90;;;;;;6232916;23;20765;-93
2023/05/13 03:00:04;;;;;;;852.67;771.00;;;10.20;99.90;;;;;;6233422;23;20431;-93
2023/05/13 03:02:32;;;;;;;851.67;771.40;;;10.10;99.90;;;;;;6233492;23;20419;-93
2023/05/13 03:05:01;;;;;;;849.70;770.20;;;10.10;99.90;;;;;;6233559;23;20714;-93
2023/05/13 03:07:29;;;;;;;860.80;780.53;;;10.00;99.90;;;;;;6223418;23;20412;-91
2023/05/13 03:09:56;;;;;;;859.27;779.33;;;10.00;99.90;;;;;;6233216;23;20927;-92
2023/05/13 03:12:23;;;;;;;849.73;769.60;;;10.00;99.90;;;;;;6233102;23;20438;-94
2023/05/13 03:14:50;;;;;;;859.40;777.40;;;10.00;99.90;;;;;;6223350;23;20416;-93
2023/05/13 03:17:17;;;;;;;845.67;764.23;;;9.90;99.90;;;;;;6233440;23;20411;-93
2023/05/13 03:19:44;;;;;;;855.90;773.93;;;9.90;99.90;;;;;;6223541;23;20417;-93
2023/05/13 03:22:13;;;;;;;851.03;769.87;;;10.00;99.90;;;;;;6234049;23;20435;-93
2023/05/13 03:24:41;;;;;;;855.27;772.90;;;10.00;99.90;;;;;;6233854;23;20412;-93
2023/05/13 03:27:09;;;;;;;848.87;766.17;;;9.90;99.90;;;;;;6233283;23;20420;-93
2023/05/13 03:29:36;;;;;;;849.30;765.93;;;9.90;99.90;;;;;;6227221;23;20421;-90
2023/05/13 03:32:05;;;;;;;857.60;773.30;;;9.90;99.90;;;;;;6230064;23;20734;-94
2023/05/13 03:34:35;;;;;;;856.77;773.07;;;9.90;99.90;;;;;;6232223;23;20408;-93
2023/05/13 03:37:02;;;;;;;854.70;770.97;;;9.90;99.90;;;;;;6233427;23;20415;-93
2023/05/13 03:39:32;;;;;;;852.03;768.90;;;10.00;99.90;;;;;;6232962;23;20416;-92
2023/05/13 03:42:02;;;;;;;857.53;775.33;;;10.00;99.90;;;;;;6233025;23;20478;-93
2023/05/13 03:44:34;;;;;;;855.77;773.50;;;9.80;99.90;;;;;;6233631;23;20459;-92
2023/05/13 03:47:03;;;;;;;866.37;784.90;;;9.90;99.90;;;;;;6233125;23;20486;-93
2023/05/13 03:49:32;;;;;;;871.63;790.23;;;9.80;99.90;;;;;;6232982;23;20439;-94
2023/05/13 03:52:00;;;;;;;866.93;786.90;;;9.80;99.90;;;;;;6232626;23;20415;-92
2023/05/13 03:54:28;;;;;;;833.83;756.57;;;9.80;99.90;;;;;;6223039;23;20408;-94
2023/05/13 03:56:58;;;;;;;830.13;754.00;;;9.70;99.90;;;;;;6233787;23;20423;-94
2023/05/13 03:59:26;;;;;;;802.17;725.70;;;9.80;99.90;;;;;;6233533;23;20792;-94
2023/05/13 04:01:53;;;;;;;812.70;735.13;;;9.80;99.90;;;;;;6233706;23;20419;-94
2023/05/13 04:04:22;;;;;;;805.23;727.57;;;9.90;99.90;;;;;;6233401;23;20447;-93
2023/05/13 04:06:49;;;;;;;806.13;729.13;;;10.00;99.90;;;;;;6233596;23;20423;-94
2023/05/13 04:09:16;;;;;;;807.63;728.53;;;10.00;99.90;;;;;;6233587;23;20488;-94
2023/05/13 04:11:46;;;;;;;806.60;730.43;;;10.10;99.90;;;;;;6233423;23;20914;-93
2023/05/13 04:14:23;;;;;;;816.97;741.43;;;10.10;99.90;;;;;;6233373;23;20412;-95
2023/05/13 04:16:51;;;;;;;802.73;730.33;;;10.10;99.90;;;;;;6233619;23;20418;-94
2023/05/13 04:19:18;;;;;;;814.67;741.30;;;10.00;99.90;;;;;;6232805;23;20412;-93
2023/05/13 04:21:45;;;;;;;818.00;743.83;;;10.10;99.90;;;;;;6232846;23;20401;-93
2023/05/13 04:24:12;;;;;;;816.30;743.33;;;10.10;99.90;;;;;;6233371;23;20499;-94
2023/05/13 04:26:39;;;;;;;805.50;734.60;;;10.10;99.90;;;;;;6233390;23;20465;-95
2023/05/13 04:29:07;;;;;;;799.70;730.60;;;10.30;99.90;;;;;;6233202;23;20411;-93
2023/05/13 04:31:37;;;;;;;799.13;730.37;;;10.20;99.90;;;;;;6233253;23;20462;-94
2023/05/13 04:34:04;;;;;;;792.63;725.53;;;10.30;99.90;;;;;;6233579;23;20389;-93
2023/05/13 04:36:33;;;;;;;797.10;727.97;;;10.40;99.90;;;;;;6233778;23;20480;-93
2023/05/13 04:39:03;;;;;;;801.13;733.43;;;10.30;99.90;;;;;;6232969;23;20447;-93
2023/05/13 04:41:31;;;;;;;801.53;733.07;;;10.40;99.90;;;;;;6231944;23;20416;-94
2023/05/13 04:44:01;;;;;;;803.50;734.27;;;10.40;99.90;;;;;;6232788;23;20456;-95
2023/05/13 04:46:34;;;;;;;807.53;736.67;;;10.40;99.90;;;;;;6233123;23;20442;-94
2023/05/13 04:49:04;;;;;;;798.37;727.43;;;10.40;99.90;;;;;;6232510;23;20422;-94
2023/05/13 04:51:32;;;;;;;800.10;730.13;;;10.50;99.90;;;;;;6232406;23;20434;-93
2023/05/13 04:54:04;;;;;;;794.13;723.17;;;10.50;99.90;;;;;;6231986;23;20731;-93
2023/05/13 04:56:32;;;;;;;788.87;718.70;;;10.60;99.90;;;;;;6232648;23;20418;-93
2023/05/13 04:58:59;;;;;;;791.07;721.43;;;10.70;99.90;;;;;;6233271;23;20434;-94
2023/05/13 05:01:30;;;;;;;789.77;719.90;;;10.70;99.90;;;;;;6230757;23;20498;-92
2023/05/13 05:03:58;;;;;;;795.03;725.53;;;10.80;99.90;;;;;;6232499;23;20450;-93
2023/05/13 05:06:30;;;;;;;793.93;725.73;;;10.80;99.90;;;;;;6232170;23;20415;-94
2023/05/13 05:08:58;;;;;;;797.30;730.37;;;10.80;99.90;;;;;;6233297;23;20395;-92
2023/05/13 05:11:25;;;;;;;809.13;743.43;;;10.80;99.90;;;;;;6232025;23;20432;-93
2023/05/13 05:13:54;;;;;;;802.57;736.97;;;10.80;99.90;;;;;;6233268;23;20416;-94
2023/05/13 05:16:21;;;;;;;806.90;742.17;;;10.80;99.90;;;;;;6233854;23;20737;-93
2023/05/13 05:18:48;;;;;;;808.27;743.53;;;10.80;99.90;;;;;;6233325;23;20412;-94
2023/05/13 05:21:17;;;;;;;816.73;752.10;;;10.70;99.90;;;;;;6232405;23;20419;-93
2023/05/13 05:23:46;;;;;;;810.57;746.07;;;10.70;99.90;;;;;;6231457;23;20439;-93
2023/05/13 05:26:13;;;;;;;804.50;738.90;;;10.60;99.90;;;;;;6231976;23;20431;-93
2023/05/13 05:28:43;;;;;;;802.93;738.83;;;10.60;99.90;;;;;;6230021;23;20779;-88
2023/05/13 05:31:10;;;;;;;794.20;730.57;;;10.50;99.90;;;;;;6222208;23;20486;-93
2023/05/13 05:33:37;;;;;;;796.17;733.07;;;10.50;99.90;;;;;;6231245;23;20919;-93
2023/05/13 05:36:05;;;;;;;791.43;727.33;;;10.50;99.90;;;;;;6231734;23;20951;-93
2023/05/13 05:38:36;;;;;;;782.23;718.87;;;10.60;99.90;;;;;;6232012;23;20423;-93
2023/05/13 05:41:07;;;;;;;780.67;716.47;;;10.50;99.90;;;;;;6231812;23;20418;-92
2023/05/13 05:43:35;;;;;;;774.30;711.00;;;10.70;99.90;;;;;;6232477;23;20431;-93
2023/05/13 05:46:03;;;;;;;770.67;707.50;;;10.80;99.90;;;;;;6232568;23;20411;-93
2023/05/13 05:48:31;;;;;;;764.00;702.80;;;11.00;99.90;;;;;;6222754;23;20451;-93
2023/05/13 05:50:58;;;;;;;760.87;698.93;;;11.10;99.90;;;;;;6232351;23;20416;-92
2023/05/13 05:53:25;;;;;;;768.03;709.03;;;11.30;99.90;;;;;;6232250;23;20412;-92
2023/05/13 05:55:58;;;;;;;765.83;707.13;;;11.40;99.90;;;;;;6231904;23;20761;-92
2023/05/13 05:58:27;;;;;;;762.27;706.47;;;11.50;99.90;;;;;;6231667;23;20416;-92
2023/05/13 06:00:55;;;;;;;745.63;692.53;;;11.60;99.90;;;;;;6231514;23;20416;-93
2023/05/13 06:03:23;;;;;;;728.23;677.27;;;11.60;99.90;;;;;;6231683;23;20428;-93
2023/05/13 06:05:50;;;;;;;723.97;673.70;;;11.80;99.90;;;;;;6232448;23;20408;-92
2023/05/13 06:08:17;;;;;;;725.63;674.40;;;11.90;99.90;;;;;;6232747;23;20404;-93
2023/05/13 06:10:45;;;;;;;724.20;674.60;;;12.00;99.90;;;;;;6233139;23;20416;-93
2023/05/13 06:13:12;;;;;;;717.33;669.63;;;12.10;99.90;;;;;;6233503;23;20415;-92
2023/05/13 06:15:40;;;;;;;704.67;659.90;;;12.10;99.90;;;;;;6234136;23;20416;-92
2023/05/13 06:18:08;;;;;;;680.30;640.10;;;12.20;99.90;;;;;;6233335;23;20412;-94
2023/05/13 06:20:35;;;;;;;688.47;648.67;;;12.20;99.90;;;;;;6223937;23;20427;-92
2023/05/13 06:23:02;;;;;;;691.37;652.57;;;12.20;99.90;;;;;;6233933;23;20432;-93
2023/05/13 06:25:29;;;;;;;668.77;631.00;;;12.20;99.90;;;;;;6233421;23;20799;-93
2023/05/13 06:27:56;;;;;;;663.43;626.87;;;12.30;99.90;;;;;;6224108;23;20412;-93
2023/05/13 06:30:23;;;;;;;659.57;622.90;;;12.30;99.90;;;;;;6233777;23;20466;-93
2023/05/13 06:32:53;;;;;;;628.53;595.73;;;12.40;99.90;;;;;;6233396;23;20423;-93
2023/05/13 06:35:21;;;;;;;553.83;527.60;;;12.50;99.90;;;;;;6233809;23;20503;-92
2023/05/13 06:37:48;;;;;;;471.50;449.90;;;12.60;99.90;;;;;;6233996;23;20411;-93
2023/05/13 06:40:15;;;;;;;428.17;409.00;;;12.80;99.90;;;;;;6233138;23;20416;-92
2023/05/13 06:42:42;;;;;;;321.73;307.50;;;12.90;99.90;;;;;;6234224;23;20930;-92
2023/05/13 06:45:12;;;;;;;328.40;313.93;;;13.00;99.90;;;;;;6232724;23;20410;-92
2023/05/13 06:47:39;;;;;;;276.07;264.27;;;13.10;99.90;;;;;;6232599;23;20416;-92
2023/05/13 06:50:08;;;;;;;313.13;299.67;;;13.20;99.90;;;;;;6223524;23;20408;-93
2023/05/13 06:52:36;;;;;;;273.07;261.50;;;13.40;99.90;;;;;;6223652;23;20419;-94
2023/05/13 06:55:03;;;;;;;183.83;175.93;;;13.50;99.90;;;;;;6233723;23;20609;-92
2023/05/13 07:37:12;;;;;;;23.53;18.20;;;15.70;99.90;;;;;;6243117;22;20409;-93
2023/05/13 07:39:43;;;;;;;20.10;15.50;;;16.20;99.90;;;;;;6253817;23;20489;-95
2023/05/13 07:42:19;;;;;;;20.50;17.67;;;16.50;99.90;;;;;;6240407;23;20431;-96
2023/05/13 07:44:49;;;;;;;20.10;16.70;;;16.60;99.90;;;;;;6223389;23;20428;-95
2023/05/13 07:47:23;;;;;;;23.40;17.17;;;16.70;99.90;;;;;;6223392;23;20482;-95
2023/05/13 08:15:45;;;;;;;20.10;15.73;;;15.60;99.90;;;;;;6229040;22;20499;-92
2023/05/13 08:18:12;;;;;;;22.30;16.50;;;15.80;99.90;;;;;;6239367;23;20441;-92
2023/05/13 08:20:39;;;;;;;18.97;15.63;;;15.90;99.90;;;;;;6239053;23;20417;-92
2023/05/13 08:23:18;;;;;;;21.20;16.27;;;16.10;99.90;;;;;;6214710;23;20439;-93
2023/05/13 08:25:50;;;;;;;20.97;15.43;;;16.40;99.90;;;;;;6208917;23;20430;-93
2023/05/13 08:29:15;;;;;;;;;;;;;;;;;;;;;
2023/05/13 08:36:06;;;;;;;19.20;14.20;;;17.00;99.90;;;;;;6110974;23;20491;-94
2023/05/13 08:38:58;;;;;;;17.10;11.97;;;17.80;99.90;;;;;;6060238;23;20443;-92
2023/05/13 08:45:23;;;;;;;16.73;10.83;;;19.10;98.10;;;;;;6171556;23;20453;-93
2023/05/13 10:05:59;;;;;;;10.80;6.00;;;22.90;80.30;;;;;;5996236;24;20450;-94
2023/05/13 11:17:00;;;;;;;;;;;;;;;;;;;;;
2023/05/13 11:29:53;;;;;;;8.13;4.43;;;26.60;15.90;;;;;;5818847;24;20409;-95
2023/05/13 11:33:11;;;;;;;6.63;3.67;;;27.00;16.90;;;;;;5978618;23;20606;-95
2023/05/13 11:36:03;;;;;;;;;;;;;;;;;;;;;
2023/05/13 11:38:32;;;;;;;7.63;4.07;;;25.50;16.10;;;;;;6167974;23;20405;-92
2023/05/13 11:41:01;;;;;;;9.57;4.80;;;24.30;18.60;;;;;;6260572;23;20426;-92
2023/05/13 11:43:32;;;;;;;10.33;3.97;;;25.10;23.30;;;;;;6261209;23;20430;-93
2023/05/13 11:46:02;;;;;;;11.03;3.50;;;25.10;17.20;;;;;;6260336;23;20417;-92
2023/05/13 11:48:59;;;;;;;9.20;4.10;;;25.50;15.00;;;;;;6256320;23;20391;-94
2023/05/13 11:52:00;;;;;;;7.00;3.90;;;25.10;8.40;;;;;;6245464;23;20410;-89
2023/05/13 11:54:27;;;;;;;7.47;3.03;;;25.60;8.50;;;;;;6245560;23;20437;-89
2023/05/13 11:56:54;;;;;;;9.20;3.93;;;26.00;6.40;;;;;;6257575;23;20481;-88
2023/05/13 11:59:26;;;;;;;7.33;3.30;;;27.30;5.80;;;;;;6257348;23;20421;-92
2023/05/13 12:02:02;;;;;;;6.23;3.67;;;27.60;2.00;;;;;;6259789;23;20442;-90
2023/05/13 12:04:32;;;;;;;8.50;3.73;;;27.90;1.10;;;;;;6251839;23;20421;-92
2023/05/13 12:07:00;;;;;;;7.40;4.40;;;28.40;1.00;;;;;;6259226;23;20494;-91
2023/05/13 12:09:27;;;;;;;6.23;3.60;;;28.30;2.10;;;;;;6258550;23;20407;-91
2023/05/13 12:11:55;;;;;;;7.40;4.07;;;26.90;2.40;;;;;;6248098;23;20423;-90
2023/05/13 12:14:23;;;;;;;6.23;3.43;;;27.20;1.40;;;;;;6258714;23;20431;-91
2023/05/13 12:17:20;;;;;;;6.43;3.10;;;27.70;1.00;;;;;;6261109;23;20434;-91
2023/05/13 12:20:55;;;;;;;7.70;3.70;;;28.20;1.00;;;;;;6247730;23;20419;-92
2023/05/13 13:01:15;;;;;;;5.90;2.43;;;27.40;5.50;;;;;;5909963;23;20754;-90
2023/05/13 13:07:56;;;;;;;8.50;2.80;;;27.20;1.50;;;;;;6259862;23;20536;-90
2023/05/13 13:11:05;;;;;;;6.40;2.70;;;25.40;1.60;;;;;;6259934;23;20465;-92
2023/05/13 14:04:43;;;;;;;6.90;3.00;;;23.90;29.80;;;;;;6207153;22;20457;-94
2023/05/13 14:12:32;;;;;;;8.90;2.70;;;28.90;7.70;;;;;;6251418;23;20443;-95
2023/05/13 14:14:59;;;;;;;7.50;2.87;;;29.30;1.00;;;;;;6236988;23;20439;-95
2023/05/13 14:20:10;;;;;;;8.63;3.30;;;28.10;1.00;;;;;;6233270;23;20404;-94
2023/05/13 14:22:52;;;;;;;6.10;3.20;;;27.50;1.00;;;;;;6250136;23;20412;-93
2023/05/13 14:25:18;;;;;;;8.10;2.97;;;26.80;1.20;;;;;;6235361;23;20392;-94
2023/05/13 14:30:27;;;;;;;6.33;2.73;;;25.70;6.90;;;;;;6237828;23;20400;-94
2023/05/13 14:32:54;;;;;;;7.50;2.90;;;25.30;4.20;;;;;;6248554;23;20432;-93
2023/05/13 14:35:22;;;;;;;8.23;3.17;;;25.00;8.10;;;;;;6250992;23;20463;-93
2023/05/13 14:37:49;;;;;;;5.03;2.40;;;24.70;7.00;;;;;;6246085;23;20404;-94
2023/05/13 14:42:57;;;;;;;7.23;3.10;;;24.70;7.90;;;;;;6239013;23;20435;-94
2023/05/13 14:45:24;;;;;;;6.90;2.90;;;24.20;12.20;;;;;;6249848;23;20407;-93
2023/05/13 14:47:54;;;;;;;6.67;3.00;;;23.70;16.30;;;;;;6241876;23;20415;-93
2023/05/13 14:50:40;;;;;;;6.50;2.70;;;23.40;22.20;;;;;;6248942;23;20420;-94
2023/05/13 14:53:07;;;;;;;8.23;3.47;;;23.30;22.10;;;;;;6239659;23;20427;-94
2023/05/13 14:55:34;;;;;;;7.53;3.30;;;24.10;22.70;;;;;;6240661;23;20443;-94
2023/05/13 15:00:44;;;;;;;7.10;3.43;;;23.70;18.60;;;;;;6238713;23;20404;-94
2023/05/13 15:05:54;;;;;;;5.40;2.70;;;23.80;22.40;;;;;;6241438;23;20407;-94
2023/05/13 15:11:02;;;;;;;5.90;2.73;;;24.50;13.50;;;;;;6240270;23;20408;-94
2023/05/13 15:13:33;;;;;;;7.20;3.27;;;25.10;6.30;;;;;;6253584;23;20438;-94
2023/05/13 15:21:24;;;;;;;5.97;2.87;;;26.70;1.20;;;;;;6238535;23;20416;-94
2023/05/13 15:23:51;;;;;;;9.30;3.00;;;26.40;6.30;;;;;;6249953;23;20485;-93
2023/05/13 15:26:18;;;;;;;7.07;3.03;;;26.70;9.00;;;;;;6230155;23;20408;-94
2023/05/13 15:29:23;;;;;;;7.30;3.07;;;26.90;6.30;;;;;;6237668;23;20479;-95
2023/05/13 15:31:57;;;;;;;6.93;2.77;;;27.20;6.10;;;;;;6219017;23;20442;-94
2023/05/13 15:34:24;;;;;;;6.03;2.60;;;27.50;2.60;;;;;;6242760;23;20459;-95
2023/05/13 15:36:53;;;;;;;6.43;3.00;;;28.50;2.20;;;;;;6234100;23;20416;-91
2023/05/13 15:39:19;;;;;;;7.53;3.87;;;28.80;1.00;;;;;;6219456;23;20420;-88
2023/05/13 15:42:05;;;;;;;9.20;2.90;;;28.90;1.00;;;;;;6233649;23;20427;-90
2023/05/13 15:44:37;;;;;;;5.33;2.43;;;29.10;1.00;;;;;;6244050;23;20442;-89
2023/05/13 15:49:48;;;;;;;7.70;3.27;;;29.40;2.70;;;;;;6231969;23;20411;-90
2023/05/13 15:52:31;;;;;;;9.13;3.57;;;27.10;14.70;;;;;;6243726;23;20428;-91
2023/05/13 15:54:58;;;;;;;6.77;3.30;;;24.70;23.10;;;;;;6246142;23;20428;-92
2023/05/13 15:57:26;;;;;;;6.07;2.77;;;21.30;29.20;;;;;;6244297;23;20412;-93
2023/05/13 16:03:22;;;;;;;10.63;4.80;;;18.70;60.60;;;;;;6240079;23;20498;-95
2023/05/13 16:06:01;;;;;;;11.63;4.80;;;17.60;60.30;;;;;;6252228;23;20410;-93
2023/05/13 16:08:31;;;;;;;7.60;4.50;;;16.90;67.30;;;;;;6252475;23;20402;-94
2023/05/13 16:13:49;;;;;;;9.60;4.87;;;16.40;73.50;;;;;;6239053;23;20597;-93
2023/05/13 16:19:16;;;;;;;8.17;4.97;;;16.40;77.70;;;;;;6235122;23;20393;-93
2023/05/13 16:21:52;;;;;;;9.30;4.53;;;16.10;76.10;;;;;;6211892;23;20460;-92
2023/05/13 16:27:41;;;;;;;7.00;4.60;;;16.20;75.90;;;;;;6234553;23;20442;-92
2023/05/13 16:30:10;;;;;;;7.00;3.83;;;16.20;79.40;;;;;;6243031;23;20398;-92
2023/05/13 16:35:25;;;;;;;7.70;4.40;;;16.30;79.10;;;;;;6233767;23;20439;-91
2023/05/13 16:37:52;;;;;;;8.20;4.60;;;16.50;81.00;;;;;;6246694;23;20415;-93
2023/05/13 16:40:19;;;;;;;7.37;4.87;;;16.60;83.00;;;;;;6246128;23;20411;-92
2023/05/13 16:42:48;;;;;;;12.30;4.77;;;16.70;83.10;;;;;;6245521;23;20436;-92
2023/05/13 16:48:04;;;;;;;7.30;5.00;;;17.00;87.00;;;;;;6230731;23;20408;-93
2023/05/13 16:56:25;;;;;;;9.50;6.20;;;16.90;83.20;;;;;;6231675;23;20470;-92
2023/05/13 17:02:07;;;;;;;6.77;4.70;;;16.70;91.50;;;;;;6236015;23;20425;-92
2023/05/13 17:08:12;;;;;;;8.63;5.50;;;16.50;89.20;;;;;;6231900;23;20405;-92
2023/05/13 17:10:42;;;;;;;9.13;6.00;;;16.50;89.50;;;;;;6249879;23;20417;-92
2023/05/13 17:13:10;;;;;;;10.60;5.80;;;16.50;92.50;;;;;;6249809;23;20431;-93
2023/05/13 17:16:01;;;;;;;9.10;5.83;;;16.50;92.20;;;;;;6239587;23;20443;-93
2023/05/13 17:18:42;;;;;;;10.47;6.00;;;16.40;92.50;;;;;;6245516;23;20399;-93
2023/05/13 17:43:50;;;;;;;8.60;6.80;;;16.90;96.20;;;;;;6215948;22;20429;-92
2023/05/13 17:46:18;;;;;;;12.30;7.17;;;17.50;94.10;;;;;;6279902;22;20399;-89
2023/05/13 17:48:46;;;;;;;13.20;6.73;;;17.50;93.70;;;;;;6280670;22;20414;-92
2023/05/13 17:51:24;;;;;;;10.97;8.07;;;17.00;94.80;;;;;;6279905;23;20482;-92
2023/05/13 17:54:06;;;;;;;10.93;7.97;;;16.50;96.80;;;;;;6247438;23;20411;-87
2023/05/13 17:56:36;;;;;;;13.30;8.57;;;16.20;97.60;;;;;;6250943;23;20437;-96
2023/05/13 17:59:05;;;;;;;13.43;8.20;;;16.10;99.00;;;;;;6252995;23;20412;-96
2023/05/13 18:04:35;;;;;;;11.07;7.73;;;15.80;99.90;;;;;;6241263;23;20411;-95
2023/05/13 18:10:26;;;;;;;11.60;7.57;;;15.80;99.10;;;;;;6241162;23;20419;-95
2023/05/13 18:16:14;;;;;;;8.70;6.10;;;15.30;99.90;;;;;;6243324;23;20432;-96
2023/05/13 18:22:04;;;;;;;7.47;6.57;;;15.10;99.90;;;;;;6237982;23;20397;-94
2023/05/13 18:24:36;;;;;;;14.07;9.90;;;14.90;99.90;;;;;;6255423;23;20495;-96
2023/05/13 18:27:22;;;;;;;15.53;14.33;;;14.80;99.90;;;;;;6255088;23;20400;-94
2023/05/13 18:37:46;;;;;;;44.27;42.00;;;14.50;99.90;;;;;;6201174;22;20418;-92
2023/05/13 18:40:17;;;;;;;48.10;45.57;;;14.50;99.90;;;;;;6254242;23;20393;-93
2023/05/13 18:42:47;;;;;;;106.03;101.83;;;14.30;99.90;;;;;;6233624;23;20412;-96
2023/05/13 18:45:20;;;;;;;61.77;59.07;;;14.30;99.90;;;;;;6223857;23;20495;-93
2023/05/13 18:47:47;;;;;;;112.13;107.83;;;14.10;99.90;;;;;;6223326;23;20404;-93
2023/05/13 18:50:16;;;;;;;152.30;146.80;;;14.10;99.90;;;;;;6223028;23;20412;-93
2023/05/13 18:52:47;;;;;;;164.90;158.50;;;14.00;99.90;;;;;;6222791;23;20434;-95
2023/05/13 18:55:28;;;;;;;175.33;168.93;;;13.80;99.90;;;;;;6222789;23;20393;-94
2023/05/13 18:58:02;;;;;;;259.83;250.83;;;13.80;99.90;;;;;;6222943;23;20408;-95
2023/05/13 19:03:17;;;;;;;303.03;292.17;;;13.70;99.90;;;;;;6210992;23;20439;-95
2023/05/13 19:05:49;;;;;;;298.17;287.37;;;13.70;99.90;;;;;;6223845;23;20424;-95
2023/05/13 19:08:28;;;;;;;285.90;275.70;;;13.70;99.90;;;;;;6222502;23;20409;-96
2023/05/13 19:10:55;;;;;;;286.50;276.20;;;13.80;99.90;;;;;;6223132;23;20424;-95
2023/05/13 19:13:26;;;;;;;404.30;388.93;;;13.60;99.90;;;;;;6223085;23;20428;-96
2023/05/13 19:15:56;;;;;;;435.47;418.53;;;13.50;99.90;;;;;;6222960;23;20413;-95
2023/05/13 19:18:26;;;;;;;463.70;445.00;;;13.40;99.90;;;;;;6222018;23;20443;-94
2023/05/13 19:20:54;;;;;;;562.50;537.33;;;13.20;99.90;;;;;;6219201;23;20408;-94
2023/05/13 19:23:24;;;;;;;614.17;585.00;;;13.10;99.90;;;;;;6217204;23;20529;-94
2023/05/13 19:25:51;;;;;;;714.43;674.47;;;13.00;99.90;;;;;;6217651;23;20507;-94
2023/05/13 19:28:19;;;;;;;734.13;692.00;;;13.00;99.90;;;;;;6217226;23;20439;-95
2023/05/13 19:30:49;;;;;;;720.20;680.83;;;12.90;99.90;;;;;;6219125;23;20495;-94
2023/05/13 19:44:39;;;;;;;576.07;550.80;;;12.60;99.90;;;;;;6224740;23;20403;-94
2023/05/13 19:53:43;;;;;;;646.87;615.13;;;12.60;99.90;;;;;;6222284;23;20830;-93
2023/05/13 19:56:10;;;;;;;762.53;719.27;;;12.50;99.90;;;;;;6233037;23;20403;-93
2023/05/13 19:58:37;;;;;;;731.43;692.23;;;12.50;99.90;;;;;;6224019;23;20416;-93
2023/05/13 20:01:04;;;;;;;757.60;715.10;;;12.50;99.90;;;;;;6222736;23;20831;-94
2023/05/13 20:03:33;;;;;;;774.90;729.17;;;12.30;99.90;;;;;;6232500;23;20411;-93
2023/05/13 20:06:02;;;;;;;783.03;736.97;;;12.20;99.90;;;;;;6232210;23;20443;-93
2023/05/13 20:08:31;;;;;;;802.50;752.40;;;12.30;99.90;;;;;;6232633;23;20750;-94
2023/05/13 20:10:59;;;;;;;795.20;746.87;;;12.10;99.90;;;;;;6231438;23;20467;-92